Time;durP1;ratioP1;P1;durP2;ratioP2;P2;SDS_P1;SDS_P2;PMS_P1;PMS_P2;Temp;Humidity;BMP_temperature;BMP_pressure;BME280_temperature;BME280_humidity;BME280_pressure;Samples;Min_cycle;Max_cycle;Signal;HPM_P1;HPM_P2
2022/09/15 00:01:34;;;;;;;7.15;1.42;;;;;;;;;;6242498;22;20024;-85
2022/09/15 00:04:04;;;;;;;4.35;1.40;;;;;;;;;;6242311;22;20069;-85
2022/09/15 00:06:32;;;;;;;7.78;1.60;;;;;;;;;;6253022;22;20456;-85
2022/09/15 00:08:59;;;;;;;6.28;1.40;;;;;;;;;;6269630;22;20019;-85
2022/09/15 00:11:51;;;;;;;4.00;1.48;;;;;;;;;;6278191;22;20087;-85
2022/09/15 00:14:19;;;;;;;6.32;1.88;;;;;;;;;;6279508;22;20066;-84
2022/09/15 00:17:01;;;;;;;4.75;1.35;;;;;;;;;;6276439;22;20051;-83
2022/09/15 00:19:43;;;;;;;4.97;1.20;;;;;;;;;;6209971;22;20099;-86
2022/09/15 00:22:13;;;;;;;4.97;1.30;;;;;;;;;;6279012;22;20474;-84
2022/09/15 00:24:41;;;;;;;3.83;1.38;;;;;;;;;;6253481;22;20084;-85
2022/09/15 00:27:09;;;;;;;5.10;1.30;;;;;;;;;;6218088;22;20021;-84
2022/09/15 00:29:37;;;;;;;4.03;1.58;;;;;;;;;;6252517;22;20016;-84
2022/09/15 00:32:05;;;;;;;4.05;1.20;;;;;;;;;;6242393;22;20419;-85
2022/09/15 00:34:38;;;;;;;6.75;1.40;;;;;;;;;;6216685;22;20023;-84
2022/09/15 00:37:05;;;;;;;5.15;1.40;;;;;;;;;;6244397;22;20055;-83
2022/09/15 00:39:33;;;;;;;3.58;1.38;;;;;;;;;;6218561;22;20537;-83
2022/09/15 00:42:03;;;;;;;3.17;1.52;;;;;;;;;;6280950;22;20077;-83
2022/09/15 00:44:34;;;;;;;5.55;1.55;;;;;;;;;;6282266;22;20436;-84
2022/09/15 00:47:03;;;;;;;5.13;1.60;;;;;;;;;;6280047;22;20846;-84
2022/09/15 00:50:16;;;;;;;3.88;1.63;;;;;;;;;;6242336;22;20066;-82
2022/09/15 00:52:49;;;;;;;4.00;1.80;;;;;;;;;;6217920;22;20020;-83
2022/09/15 00:55:27;;;;;;;4.60;1.50;;;;;;;;;;6253965;22;20023;-83
2022/09/15 00:58:02;;;;;;;3.40;1.45;;;;;;;;;;6280388;22;20034;-83
2022/09/15 01:00:32;;;;;;;2.83;1.52;;;;;;;;;;6279812;22;20526;-84
2022/09/15 01:03:05;;;;;;;4.70;1.48;;;;;;;;;;6254922;22;20015;-84
2022/09/15 01:05:50;;;;;;;6.55;1.77;;;;;;;;;;6242962;22;20100;-83
2022/09/15 01:08:37;;;;;;;5.68;1.70;;;;;;;;;;6280475;22;20103;-83
2022/09/15 01:11:05;;;;;;;4.50;1.50;;;;;;;;;;6252472;22;20087;-83
2022/09/15 01:13:35;;;;;;;4.15;1.60;;;;;;;;;;6281139;22;20411;-84
2022/09/15 01:16:12;;;;;;;4.65;1.83;;;;;;;;;;6279570;22;20096;-83
2022/09/15 01:19:10;;;;;;;2.88;1.65;;;;;;;;;;6279303;22;20091;-84
2022/09/15 01:21:52;;;;;;;4.65;1.50;;;;;;;;;;6252657;22;20500;-84
2022/09/15 01:25:06;;;;;;;5.15;1.90;;;;;;;;;;6276005;22;20131;-83
2022/09/15 01:28:14;;;;;;;4.32;1.50;;;;;;;;;;6185510;23;20396;-83
2022/09/15 01:31:20;;;;;;;5.35;1.75;;;;;;;;;;6183923;23;20044;-84
2022/09/15 01:34:15;;;;;;;3.63;1.60;;;;;;;;;;6185464;23;20032;-84
2022/09/15 01:36:58;;;;;;;3.25;1.50;;;;;;;;;;6186305;23;20021;-83
2022/09/15 01:39:36;;;;;;;5.45;2.40;;;;;;;;;;6184897;23;20028;-83
2022/09/15 01:42:08;;;;;;;5.03;1.77;;;;;;;;;;6185244;23;20024;-84
2022/09/15 01:44:40;;;;;;;5.60;1.50;;;;;;;;;;6161461;23;20024;-83
2022/09/15 01:47:19;;;;;;;4.38;1.50;;;;;;;;;;6186975;23;20021;-83
2022/09/15 01:49:55;;;;;;;5.18;1.40;;;;;;;;;;6187354;23;20136;-84
2022/09/15 01:53:17;;;;;;;8.02;1.95;;;;;;;;;;6187395;23;20016;-83
2022/09/15 01:55:52;;;;;;;6.82;2.03;;;;;;;;;;6177371;23;20025;-84
2022/09/15 01:59:09;;;;;;;3.88;1.35;;;;;;;;;;6187922;23;20148;-84
2022/09/15 02:01:50;;;;;;;5.00;1.63;;;;;;;;;;6213979;22;20098;-84
2022/09/15 02:04:35;;;;;;;3.97;1.88;;;;;;;;;;6255261;22;20039;-83
2022/09/15 02:07:19;;;;;;;6.63;1.63;;;;;;;;;;6244589;22;20019;-84
2022/09/15 02:09:56;;;;;;;7.05;1.45;;;;;;;;;;6243988;22;20077;-84
2022/09/15 02:12:35;;;;;;;5.93;1.50;;;;;;;;;;6277888;22;20042;-84
2022/09/15 02:15:09;;;;;;;11.38;2.05;;;;;;;;;;6281744;22;20019;-84
2022/09/15 02:17:42;;;;;;;4.70;1.50;;;;;;;;;;6253985;22;20019;-84
2022/09/15 02:20:24;;;;;;;8.23;2.03;;;;;;;;;;6254290;22;20515;-83
2022/09/15 02:22:59;;;;;;;4.00;1.55;;;;;;;;;;6273116;22;20042;-84
2022/09/15 02:25:35;;;;;;;4.45;1.58;;;;;;;;;;6281327;22;20022;-83
2022/09/15 02:28:07;;;;;;;4.07;1.20;;;;;;;;;;6244257;22;20118;-83
2022/09/15 02:30:39;;;;;;;9.65;2.10;;;;;;;;;;6281631;22;20020;-84
2022/09/15 02:33:13;;;;;;;8.07;1.80;;;;;;;;;;6219354;22;20444;-83
2022/09/15 02:35:42;;;;;;;9.65;2.53;;;;;;;;;;6280564;22;20027;-84
2022/09/15 02:38:38;;;;;;;5.32;1.50;;;;;;;;;;6281076;22;20007;-83
2022/09/15 02:41:05;;;;;;;9.82;1.75;;;;;;;;;;6254264;22;20073;-84
2022/09/15 02:43:45;;;;;;;6.07;1.70;;;;;;;;;;6280512;22;20023;-84
2022/09/15 02:49:09;;;;;;;3.38;1.73;;;;;;;;;;6281583;22;20051;-83
2022/09/15 02:51:37;;;;;;;4.38;1.80;;;;;;;;;;6281525;22;20087;-83
2022/09/15 02:54:05;;;;;;;6.05;2.00;;;;;;;;;;6281185;22;20511;-84
2022/09/15 02:56:33;;;;;;;7.40;1.92;;;;;;;;;;6280473;22;20038;-83
2022/09/15 02:59:05;;;;;;;4.57;2.10;;;;;;;;;;6244457;22;20140;-84
2022/09/15 03:01:33;;;;;;;4.15;1.60;;;;;;;;;;6280669;22;20012;-84
2022/09/15 03:04:07;;;;;;;4.93;1.70;;;;;;;;;;6254092;22;20023;-84
2022/09/15 03:06:39;;;;;;;3.40;1.67;;;;;;;;;;6281705;22;20325;-83
2022/09/15 03:09:12;;;;;;;15.15;2.58;;;;;;;;;;6281684;22;20026;-83
2022/09/15 03:11:39;;;;;;;10.25;1.70;;;;;;;;;;6279585;22;20016;-83
2022/09/15 03:14:31;;;;;;;6.47;1.90;;;;;;;;;;6281485;22;20076;-84
2022/09/15 03:16:59;;;;;;;6.25;1.60;;;;;;;;;;6268777;22;20050;-83
2022/09/15 03:19:31;;;;;;;4.50;1.42;;;;;;;;;;6243503;22;20408;-84
2022/09/15 03:21:59;;;;;;;4.88;1.60;;;;;;;;;;6280653;22;20023;-84
2022/09/15 03:24:27;;;;;;;3.72;1.60;;;;;;;;;;6279557;22;20035;-83
2022/09/15 03:27:19;;;;;;;5.15;1.85;;;;;;;;;;6280192;22;20031;-84
2022/09/15 03:29:47;;;;;;;4.95;1.63;;;;;;;;;;6254423;22;20016;-84
2022/09/15 03:32:15;;;;;;;5.78;1.60;;;;;;;;;;6281201;22;20015;-84
2022/09/15 03:34:43;;;;;;;4.65;1.60;;;;;;;;;;6280014;22;20026;-84
2022/09/15 03:37:35;;;;;;;4.82;1.73;;;;;;;;;;6280611;22;20011;-84
2022/09/15 03:40:29;;;;;;;6.85;1.88;;;;;;;;;;6243177;22;20418;-84
2022/09/15 03:42:57;;;;;;;3.92;1.48;;;;;;;;;;6253596;22;20019;-84
2022/09/15 03:45:25;;;;;;;6.75;2.22;;;;;;;;;;6280453;22;20077;-84
2022/09/15 03:47:53;;;;;;;5.53;1.60;;;;;;;;;;6280987;22;20028;-83
2022/09/15 03:50:25;;;;;;;4.65;2.53;;;;;;;;;;6281472;22;20019;-83
2022/09/15 03:56:27;;;;;;;5.80;1.48;;;;;;;;;;6277862;22;20023;-84
2022/09/15 03:58:56;;;;;;;4.43;1.60;;;;;;;;;;6280577;22;20019;-84
2022/09/15 04:01:23;;;;;;;6.88;1.60;;;;;;;;;;6277972;22;20782;-84
2022/09/15 04:03:56;;;;;;;7.90;1.80;;;;;;;;;;6254300;22;20095;-84
2022/09/15 04:06:47;;;;;;;5.82;1.50;;;;;;;;;;6258440;22;20443;-84
2022/09/15 04:09:20;;;;;;;5.20;1.35;;;;;;;;;;6254761;22;20023;-83
2022/09/15 04:12:17;;;;;;;5.35;1.30;;;;;;;;;;6259409;22;20053;-84
2022/09/15 04:14:49;;;;;;;3.88;1.40;;;;;;;;;;6280238;22;20567;-84
2022/09/15 04:17:41;;;;;;;3.30;1.50;;;;;;;;;;6279075;22;20023;-84
2022/09/15 04:20:09;;;;;;;5.30;1.80;;;;;;;;;;6280126;22;20050;-84
2022/09/15 04:23:01;;;;;;;6.72;1.58;;;;;;;;;;6278860;22;20015;-84
2022/09/15 04:26:06;;;;;;;5.88;2.20;;;;;;;;;;6279851;22;20042;-83
2022/09/15 04:28:37;;;;;;;6.35;1.65;;;;;;;;;;6280495;22;20031;-84
2022/09/15 04:31:08;;;;;;;5.97;1.60;;;;;;;;;;6276890;22;20422;-83
2022/09/15 04:33:39;;;;;;;5.82;1.67;;;;;;;;;;6280055;22;20031;-83
2022/09/15 04:36:12;;;;;;;5.68;1.85;;;;;;;;;;6254548;22;20098;-83
2022/09/15 04:38:46;;;;;;;9.10;1.27;;;;;;;;;;6278566;22;20116;-84
2022/09/15 04:41:13;;;;;;;3.22;1.45;;;;;;;;;;6279304;22;20023;-84
2022/09/15 04:43:42;;;;;;;5.55;1.35;;;;;;;;;;6280586;22;20020;-83
2022/09/15 04:46:11;;;;;;;4.85;1.50;;;;;;;;;;6277558;22;20152;-84
2022/09/15 04:48:39;;;;;;;2.92;1.30;;;;;;;;;;6253294;22;20479;-85
2022/09/15 04:51:35;;;;;;;5.03;1.35;;;;;;;;;;6278613;22;20086;-85
2022/09/15 04:54:03;;;;;;;4.90;1.40;;;;;;;;;;6277049;22;20467;-84
2022/09/15 04:56:36;;;;;;;6.47;1.80;;;;;;;;;;6278183;22;20019;-85
2022/09/15 04:59:03;;;;;;;4.28;1.35;;;;;;;;;;6279812;22;20027;-83
2022/09/15 05:01:35;;;;;;;4.00;1.10;;;;;;;;;;6279022;22;20584;-84
2022/09/15 05:04:03;;;;;;;5.05;1.70;;;;;;;;;;6253109;22;20077;-84
2022/09/15 05:06:33;;;;;;;5.15;1.30;;;;;;;;;;6251527;22;20015;-84
2022/09/15 05:09:04;;;;;;;9.63;2.28;;;;;;;;;;6253844;22;20131;-84
2022/09/15 05:11:37;;;;;;;4.88;1.45;;;;;;;;;;6277467;22;20026;-84
2022/09/15 05:14:06;;;;;;;8.63;2.00;;;;;;;;;;6278948;22;20023;-84
2022/09/15 05:16:35;;;;;;;5.03;1.45;;;;;;;;;;6241496;22;20526;-83
2022/09/15 05:19:08;;;;;;;7.57;1.52;;;;;;;;;;6280571;22;20024;-83
2022/09/15 05:21:35;;;;;;;10.88;2.08;;;;;;;;;;6281773;22;20078;-83
2022/09/15 05:24:03;;;;;;;6.35;1.85;;;;;;;;;;6281951;22;20050;-83
2022/09/15 05:26:46;;;;;;;5.38;1.50;;;;;;;;;;6264159;22;20081;-84
2022/09/15 05:29:16;;;;;;;6.00;1.27;;;;;;;;;;6260301;22;20030;-84
2022/09/15 05:31:51;;;;;;;5.40;1.52;;;;;;;;;;6282206;22;20727;-84
2022/09/15 05:34:19;;;;;;;6.70;1.40;;;;;;;;;;6281280;22;20028;-85
2022/09/15 05:37:13;;;;;;;4.30;1.42;;;;;;;;;;6222281;22;20054;-85
2022/09/15 05:40:34;;;;;;;4.70;1.23;;;;;;;;;;6265310;22;20785;-86
2022/09/15 05:43:11;;;;;;;7.35;1.70;;;;;;;;;;6239332;22;20122;-85
2022/09/15 05:45:42;;;;;;;6.45;1.27;;;;;;;;;;6274306;22;20019;-84
2022/09/15 05:48:11;;;;;;;6.03;1.30;;;;;;;;;;6248173;22;20095;-84
2022/09/15 05:50:48;;;;;;;3.30;1.73;;;;;;;;;;6274965;22;20015;-84
2022/09/15 05:53:39;;;;;;;6.55;1.45;;;;;;;;;;6249359;22;20003;-84
2022/09/15 05:56:15;;;;;;;7.28;1.48;;;;;;;;;;6275399;22;20046;-83
2022/09/15 05:58:45;;;;;;;9.43;1.73;;;;;;;;;;6273032;22;20395;-84
2022/09/15 06:04:13;;;;;;;7.03;1.33;;;;;;;;;;6261478;22;20027;-84
2022/09/15 06:07:05;;;;;;;7.15;1.17;;;;;;;;;;6274101;22;20023;-84
2022/09/15 06:09:33;;;;;;;3.78;1.13;;;;;;;;;;6273870;22;20019;-84
2022/09/15 06:12:01;;;;;;;6.53;0.88;;;;;;;;;;6237189;22;20077;-84
2022/09/15 06:14:33;;;;;;;6.32;1.23;;;;;;;;;;6246857;22;20097;-83
2022/09/15 06:17:01;;;;;;;6.63;1.50;;;;;;;;;;6245285;22;20019;-84
2022/09/15 06:19:29;;;;;;;4.28;1.27;;;;;;;;;;6275038;22;20016;-84
2022/09/15 06:21:57;;;;;;;6.68;1.23;;;;;;;;;;6215423;22;20355;-84
2022/09/15 06:24:49;;;;;;;7.80;1.35;;;;;;;;;;6274780;22;20012;-84
2022/09/15 06:27:21;;;;;;;9.68;1.33;;;;;;;;;;6275775;22;20771;-85
2022/09/15 06:29:49;;;;;;;8.48;1.45;;;;;;;;;;6263830;22;20027;-85
2022/09/15 06:32:42;;;;;;;4.47;1.63;;;;;;;;;;6258831;22;20096;-84
2022/09/15 06:35:16;;;;;;;5.80;1.02;;;;;;;;;;6239747;22;20016;-85
2022/09/15 06:37:45;;;;;;;7.10;1.10;;;;;;;;;;6253042;22;20354;-85
2022/09/15 06:40:13;;;;;;;7.55;1.42;;;;;;;;;;6251186;22;20757;-85
2022/09/15 06:42:41;;;;;;;5.07;1.38;;;;;;;;;;6252059;22;20090;-84
2022/09/15 06:45:11;;;;;;;11.75;1.20;;;;;;;;;;6217024;22;20347;-85
2022/09/15 06:48:03;;;;;;;6.38;1.25;;;;;;;;;;6279878;22;20018;-85
2022/09/15 06:50:52;;;;;;;6.22;1.15;;;;;;;;;;6281201;22;20022;-85
2022/09/15 06:53:44;;;;;;;3.97;1.02;;;;;;;;;;6252875;22;20719;-85
2022/09/15 06:56:14;;;;;;;8.63;1.17;;;;;;;;;;6277824;22;20024;-85
2022/09/15 06:59:05;;;;;;;5.32;1.48;;;;;;;;;;6279193;22;20019;-85
2022/09/15 07:01:37;;;;;;;9.00;1.20;;;;;;;;;;6275901;22;20015;-85
2022/09/15 07:04:08;;;;;;;9.90;1.77;;;;;;;;;;6280273;22;20702;-85
2022/09/15 07:06:37;;;;;;;5.05;1.40;;;;;;;;;;6252444;22;20026;-85
2022/09/15 07:09:05;;;;;;;4.47;1.13;;;;;;;;;;6278602;22;20019;-85
2022/09/15 07:11:33;;;;;;;12.50;1.65;;;;;;;;;;6277265;22;20798;-85
2022/09/15 07:14:03;;;;;;;6.47;1.42;;;;;;;;;;6278185;22;20027;-85
2022/09/15 07:16:31;;;;;;;4.03;1.25;;;;;;;;;;6277654;22;20026;-85
2022/09/15 07:19:02;;;;;;;5.60;1.55;;;;;;;;;;6253208;22;20023;-86
2022/09/15 07:21:55;;;;;;;6.88;0.93;;;;;;;;;;6256573;22;20088;-85
2022/09/15 07:24:27;;;;;;;6.47;1.10;;;;;;;;;;6277063;22;20016;-85
2022/09/15 07:26:55;;;;;;;5.82;1.00;;;;;;;;;;6265441;22;20027;-85
2022/09/15 07:29:47;;;;;;;6.45;1.45;;;;;;;;;;6279412;22;20016;-85
2022/09/15 07:32:15;;;;;;;6.47;1.40;;;;;;;;;;6280044;22;20051;-85
2022/09/15 07:34:51;;;;;;;4.03;0.98;;;;;;;;;;6276283;22;20687;-85
2022/09/15 07:37:25;;;;;;;4.72;1.27;;;;;;;;;;6277312;22;20016;-85
2022/09/15 07:40:03;;;;;;;4.50;1.20;;;;;;;;;;6275874;22;20041;-85
2022/09/15 07:42:42;;;;;;;7.32;1.30;;;;;;;;;;6276306;22;20074;-85
2022/09/15 07:45:15;;;;;;;6.03;0.90;;;;;;;;;;6279347;22;20024;-85
2022/09/15 07:47:43;;;;;;;8.32;1.40;;;;;;;;;;6250402;22;20016;-85
2022/09/15 07:50:13;;;;;;;7.90;1.20;;;;;;;;;;6252392;22;20127;-85
2022/09/15 07:52:48;;;;;;;7.68;1.20;;;;;;;;;;6277862;22;20019;-85
2022/09/15 07:55:25;;;;;;;4.22;1.00;;;;;;;;;;6275279;22;20019;-85
2022/09/15 07:58:00;;;;;;;5.00;1.50;;;;;;;;;;6250426;22;20046;-85
2022/09/15 08:00:29;;;;;;;6.80;1.23;;;;;;;;;;6252541;22;20077;-85
2022/09/15 08:02:58;;;;;;;6.45;1.13;;;;;;;;;;6251635;22;20019;-85
2022/09/15 08:05:45;;;;;;;6.88;0.98;;;;;;;;;;6277114;22;20099;-85
2022/09/15 08:08:44;;;;;;;6.18;1.15;;;;;;;;;;6263271;22;20014;-85
2022/09/15 08:11:17;;;;;;;2.85;0.88;;;;;;;;;;6252152;22;20016;-85
2022/09/15 08:13:51;;;;;;;9.18;1.50;;;;;;;;;;6215561;22;20015;-85
2022/09/15 08:16:25;;;;;;;3.90;0.95;;;;;;;;;;6275186;22;20077;-85
2022/09/15 08:19:01;;;;;;;3.42;1.00;;;;;;;;;;6250041;22;20020;-85
2022/09/15 08:21:39;;;;;;;5.05;1.20;;;;;;;;;;6275839;22;20024;-85
2022/09/15 08:24:14;;;;;;;4.78;1.20;;;;;;;;;;6213969;22;20026;-85
2022/09/15 08:26:46;;;;;;;7.35;1.00;;;;;;;;;;6250446;22;20081;-85
2022/09/15 08:29:16;;;;;;;7.10;1.00;;;;;;;;;;6239308;22;20027;-85
2022/09/15 08:32:10;;;;;;;5.72;1.25;;;;;;;;;;6213214;22;20015;-85
2022/09/15 08:34:39;;;;;;;9.65;1.00;;;;;;;;;;6250539;22;20069;-85
2022/09/15 08:37:21;;;;;;;4.35;0.90;;;;;;;;;;6273470;22;20107;-83
2022/09/15 08:41:05;;;;;;;6.15;1.10;;;;;;;;;;6263838;22;20467;-83
2022/09/15 08:44:24;;;;;;;7.20;0.98;;;;;;;;;;6276311;22;20018;-85
2022/09/15 08:47:44;;;;;;;5.07;1.13;;;;;;;;;;6254736;22;20427;-85
2022/09/15 08:50:40;;;;;;;4.53;0.95;;;;;;;;;;6273423;22;20622;-85
2022/09/15 08:53:31;;;;;;;7.53;1.67;;;;;;;;;;6235282;22;20023;-84
2022/09/15 08:56:39;;;;;;;10.18;1.17;;;;;;;;;;6257226;22;20042;-84
2022/09/15 08:59:55;;;;;;;6.95;1.08;;;;;;;;;;6263691;22;20629;-85
2022/09/15 09:03:10;;;;;;;8.52;1.70;;;;;;;;;;6242434;22;20019;-86
2022/09/15 09:06:05;;;;;;;3.63;0.93;;;;;;;;;;6273293;22;20031;-84
2022/09/15 09:09:11;;;;;;;6.47;1.35;;;;;;;;;;6249591;22;20016;-86
2022/09/15 09:12:18;;;;;;;5.93;0.77;;;;;;;;;;6224432;22;20482;-84
2022/09/15 09:15:32;;;;;;;4.20;1.13;;;;;;;;;;6272567;22;20459;-84
2022/09/15 09:18:45;;;;;;;4.28;0.80;;;;;;;;;;6272145;22;20022;-84
2022/09/15 09:21:46;;;;;;;6.95;1.08;;;;;;;;;;6246974;22;20336;-84
2022/09/15 09:24:49;;;;;;;5.03;1.33;;;;;;;;;;6273435;22;20015;-83
2022/09/15 09:27:52;;;;;;;7.13;1.33;;;;;;;;;;6264402;22;20026;-86
2022/09/15 09:30:34;;;;;;;18.40;1.35;;;;;;;;;;6251190;22;20016;-84
2022/09/15 09:34:09;;;;;;;7.78;1.08;;;;;;;;;;6246384;22;20040;-84
2022/09/15 09:37:08;;;;;;;3.00;0.88;;;;;;;;;;6276380;22;20371;-84
2022/09/15 09:39:55;;;;;;;4.40;0.90;;;;;;;;;;6272745;22;20028;-84
2022/09/15 09:42:30;;;;;;;5.22;1.20;;;;;;;;;;6275341;22;20046;-86
2022/09/15 09:44:59;;;;;;;5.43;1.02;;;;;;;;;;6273883;22;20104;-86
2022/09/15 09:47:33;;;;;;;2.90;0.80;;;;;;;;;;6247490;22;20131;-85
2022/09/15 09:50:01;;;;;;;7.18;1.15;;;;;;;;;;6275660;22;20020;-86
2022/09/15 09:52:35;;;;;;;6.93;1.50;;;;;;;;;;6244427;22;20353;-85
2022/09/15 09:55:20;;;;;;;6.60;1.05;;;;;;;;;;6222762;22;20390;-85
2022/09/15 09:58:16;;;;;;;5.57;0.90;;;;;;;;;;6274369;22;20427;-85
2022/09/15 10:00:43;;;;;;;2.95;0.75;;;;;;;;;;6275048;22;20013;-83
2022/09/15 10:03:24;;;;;;;3.50;0.82;;;;;;;;;;6274219;22;20111;-85
2022/09/15 10:06:17;;;;;;;2.97;0.93;;;;;;;;;;6279538;22;20019;-85
2022/09/15 10:08:53;;;;;;;5.93;1.00;;;;;;;;;;6277489;22;20103;-85
2022/09/15 10:11:50;;;;;;;5.72;1.10;;;;;;;;;;6275825;22;20090;-85
2022/09/15 10:14:36;;;;;;;6.13;1.30;;;;;;;;;;6251448;22;20531;-85
2022/09/15 10:17:40;;;;;;;6.45;0.88;;;;;;;;;;6276052;22;20007;-85
2022/09/15 10:20:24;;;;;;;4.97;1.20;;;;;;;;;;6278755;22;20023;-85
2022/09/15 10:23:01;;;;;;;3.53;0.90;;;;;;;;;;6251571;22;20556;-85
2022/09/15 10:25:57;;;;;;;3.03;0.75;;;;;;;;;;6277094;22;20016;-85
2022/09/15 10:28:27;;;;;;;3.35;1.20;;;;;;;;;;6276491;22;20344;-85
2022/09/15 10:31:31;;;;;;;6.35;1.10;;;;;;;;;;6276586;22;20015;-86
2022/09/15 10:34:26;;;;;;;5.43;0.90;;;;;;;;;;6280983;22;20016;-85
2022/09/15 10:37:00;;;;;;;6.82;1.48;;;;;;;;;;6279325;22;20122;-85
2022/09/15 10:39:50;;;;;;;3.45;1.20;;;;;;;;;;6279067;22;20097;-85
2022/09/15 10:42:51;;;;;;;5.30;1.13;;;;;;;;;;6253465;22;20044;-85
2022/09/15 10:45:33;;;;;;;3.67;0.80;;;;;;;;;;6280272;22;20566;-86
2022/09/15 10:48:30;;;;;;;8.00;1.08;;;;;;;;;;6281832;22;20563;-86
2022/09/15 10:52:19;;;;;;;7.65;1.10;;;;;;;;;;6250153;22;20660;-85
2022/09/15 10:56:24;;;;;;;4.07;1.30;;;;;;;;;;6270732;22;20027;-85
2022/09/15 10:59:27;;;;;;;4.45;0.90;;;;;;;;;;6269806;22;20027;-85
2022/09/15 11:03:21;;;;;;;2.78;1.00;;;;;;;;;;6266250;22;20024;-85
2022/09/15 11:07:54;;;;;;;2.15;0.50;;;;;;;;;;6201614;23;20103;-85
2022/09/15 11:11:52;;;;;;;4.00;0.80;;;;;;;;;;6199428;23;20544;-84
2022/09/15 11:15:19;;;;;;;1.67;0.50;;;;;;;;;;6099620;23;20052;-85
2022/09/15 11:18:25;;;;;;;2.88;0.70;;;;;;;;;;6061754;23;20951;-85
2022/09/15 11:21:44;;;;;;;3.25;0.80;;;;;;;;;;6102207;23;20027;-84
2022/09/15 11:24:50;;;;;;;5.55;1.27;;;;;;;;;;6075334;23;20093;-85
2022/09/15 11:27:40;;;;;;;3.00;0.77;;;;;;;;;;6080299;23;20369;-83
2022/09/15 11:30:46;;;;;;;6.00;1.13;;;;;;;;;;6067045;23;20037;-83
2022/09/15 11:33:48;;;;;;;3.42;0.90;;;;;;;;;;6092220;23;20286;-83
2022/09/15 11:36:57;;;;;;;3.58;0.63;;;;;;;;;;6056799;23;20086;-83
2022/09/15 11:40:15;;;;;;;6.97;0.90;;;;;;;;;;6062459;23;20057;-83
2022/09/15 11:44:28;;;;;;;2.45;0.70;;;;;;;;;;6028384;23;20023;-83
2022/09/15 11:49:06;;;;;;;3.45;1.15;;;;;;;;;;6023658;23;20023;-83
2022/09/15 11:52:38;;;;;;;3.53;0.90;;;;;;;;;;6101157;23;20022;-83
2022/09/15 11:56:16;;;;;;;3.50;0.95;;;;;;;;;;6065450;23;20085;-84
2022/09/15 12:01:15;;;;;;;4.43;0.98;;;;;;;;;;6111659;23;20037;-84
2022/09/15 12:05:58;;;;;;;3.30;0.70;;;;;;;;;;6111020;23;20025;-83
2022/09/15 12:09:40;;;;;;;5.20;0.88;;;;;;;;;;6082436;23;20048;-85
2022/09/15 12:14:14;;;;;;;3.70;0.82;;;;;;;;;;6111503;23;20744;-86
2022/09/15 12:18:11;;;;;;;6.65;0.70;;;;;;;;;;6084866;23;20038;-86
2022/09/15 12:23:10;;;;;;;3.17;1.02;;;;;;;;;;5990941;23;20098;-87
2022/09/15 12:27:15;;;;;;;4.28;1.20;;;;;;;;;;5967092;23;20115;-86
2022/09/15 12:31:33;;;;;;;2.80;1.00;;;;;;;;;;5920407;24;20108;-86
2022/09/15 12:36:14;;;;;;;8.20;1.13;;;;;;;;;;5897684;24;20040;-86
2022/09/15 12:40:57;;;;;;;5.30;1.13;;;;;;;;;;5894319;24;20033;-86
2022/09/15 12:45:23;;;;;;;1.98;0.60;;;;;;;;;;5862981;24;20022;-86
2022/09/15 12:49:53;;;;;;;2.58;0.85;;;;;;;;;;5859551;24;20065;-87
2022/09/15 12:53:45;;;;;;;5.53;0.95;;;;;;;;;;5887714;24;20550;-86
2022/09/15 12:56:30;;;;;;;7.78;0.90;;;;;;;;;;5861035;24;20030;-83
2022/09/15 12:59:13;;;;;;;3.75;0.70;;;;;;;;;;5893537;24;20026;-82
2022/09/15 13:01:56;;;;;;;7.90;1.13;;;;;;;;;;5877386;24;20024;-84
2022/09/15 13:04:42;;;;;;;3.35;0.80;;;;;;;;;;5975736;24;20019;-84
2022/09/15 13:07:34;;;;;;;4.75;0.70;;;;;;;;;;5976824;24;20031;-84
2022/09/15 13:11:03;;;;;;;3.05;0.70;;;;;;;;;;5956358;24;20083;-86
2022/09/15 13:24:27;;;;;;;4.70;0.85;;;;;;;;;;5987598;23;20054;-85
2022/09/15 13:28:57;;;;;;;8.65;1.23;;;;;;;;;;5948178;24;20039;-85
2022/09/15 13:33:19;;;;;;;2.78;0.68;;;;;;;;;;5910236;24;20028;-86
2022/09/15 13:37:53;;;;;;;1.88;0.70;;;;;;;;;;5936723;24;20032;-85
2022/09/15 13:41:53;;;;;;;4.38;1.05;;;;;;;;;;5940942;24;20111;-86
2022/09/15 13:46:22;;;;;;;2.70;0.70;;;;;;;;;;5942415;24;20114;-86
2022/09/15 13:50:59;;;;;;;3.80;0.77;;;;;;;;;;5835770;24;20022;-84
2022/09/15 13:55:38;;;;;;;5.65;1.00;;;;;;;;;;5809601;24;20026;-84
2022/09/15 14:00:14;;;;;;;4.18;1.10;;;;;;;;;;5730405;24;20048;-85
2022/09/15 14:04:13;;;;;;;3.20;0.82;;;;;;;;;;5690047;24;20026;-86
2022/09/15 14:08:19;;;;;;;4.63;1.00;;;;;;;;;;5683189;25;20517;-86
2022/09/15 14:17:11;;;;;;;8.05;1.33;;;;;;;;;;5737934;24;20735;-84
2022/09/15 14:21:37;;;;;;;5.03;1.10;;;;;;;;;;5754105;24;20890;-83
2022/09/15 14:26:10;;;;;;;3.03;0.80;;;;;;;;;;5824600;24;20065;-85
2022/09/15 14:30:51;;;;;;;6.70;1.13;;;;;;;;;;5943236;24;20039;-84
2022/09/15 14:35:30;;;;;;;9.70;1.00;;;;;;;;;;6001195;23;20019;-84
2022/09/15 14:48:45;;;;;;;7.13;1.10;;;;;;;;;;5749717;24;20132;-82
2022/09/15 14:51:24;;;;;;;7.30;1.20;;;;;;;;;;5919880;24;20033;-85
2022/09/15 14:54:28;;;;;;;6.55;1.13;;;;;;;;;;5954932;24;20353;-84
2022/09/15 14:57:10;;;;;;;9.07;1.92;;;;;;;;;;5941422;24;20035;-85
2022/09/15 15:01:14;;;;;;;5.30;1.00;;;;;;;;;;6004648;23;20031;-85
2022/09/15 15:05:46;;;;;;;3.60;0.70;;;;;;;;;;5997247;23;20123;-85
2022/09/15 15:08:54;;;;;;;4.75;1.10;;;;;;;;;;6051279;23;20026;-85
2022/09/15 15:11:57;;;;;;;5.70;1.13;;;;;;;;;;6087512;23;20029;-83
2022/09/15 15:15:25;;;;;;;3.72;0.85;;;;;;;;;;6234022;23;20085;-83
2022/09/15 15:19:27;;;;;;;5.28;1.20;;;;;;;;;;6233484;23;20028;-85
2022/09/15 15:23:41;;;;;;;3.15;1.00;;;;;;;;;;6199822;23;20024;-87
2022/09/15 15:32:50;;;;;;;;;;;;;;;;;;6024533;23;20083;-85
2022/09/15 15:37:44;;;;;;;6.15;1.00;;;;;;;;;;6006762;23;19970;-86
2022/09/15 15:46:15;;;;;;;3.55;0.90;;;;;;;;;;5859409;24;20021;-85
2022/09/15 15:49:49;;;;;;;5.15;1.00;;;;;;;;;;5859533;24;20026;-83
2022/09/15 15:54:34;;;;;;;2.53;1.00;;;;;;;;;;5788645;24;20093;-84
2022/09/15 15:58:30;;;;;;;5.05;1.38;;;;;;;;;;5806512;24;20353;-84
2022/09/15 16:02:31;;;;;;;11.73;1.70;;;;;;;;;;5812901;24;20030;-86
2022/09/15 16:05:47;;;;;;;4.68;1.10;;;;;;;;;;5831302;24;20101;-85
2022/09/15 16:09:16;;;;;;;3.80;0.93;;;;;;;;;;5886375;24;20061;-85
2022/09/15 16:12:24;;;;;;;3.85;1.10;;;;;;;;;;5885736;24;20033;-87
2022/09/15 16:20:23;;;;;;;9.10;2.38;;;;;;;;;;6025337;23;20023;-86
2022/09/15 16:23:50;;;;;;;5.55;1.15;;;;;;;;;;6027048;23;20091;-84
2022/09/15 16:26:21;;;;;;;4.90;0.80;;;;;;;;;;6003951;23;20125;-85
2022/09/15 16:29:13;;;;;;;;;;;;;;;;;;6055815;23;20013;-85
2022/09/15 16:33:11;;;;;;;6.32;1.15;;;;;;;;;;6111405;23;20039;-85
2022/09/15 16:36:38;;;;;;;5.53;1.10;;;;;;;;;;6121029;23;20029;-85
2022/09/15 16:39:19;;;;;;;6.20;1.17;;;;;;;;;;6128149;23;20084;-84
2022/09/15 16:41:47;;;;;;;10.20;1.25;;;;;;;;;;6227867;23;20266;-84
2022/09/15 16:44:18;;;;;;;3.17;0.98;;;;;;;;;;6254334;23;20012;-84
2022/09/15 16:47:15;;;;;;;3.58;0.80;;;;;;;;;;6239414;23;20024;-84
2022/09/15 16:50:14;;;;;;;5.22;0.95;;;;;;;;;;6209104;23;20024;-84
2022/09/15 16:52:56;;;;;;;3.72;0.90;;;;;;;;;;6254679;23;20081;-85
2022/09/15 16:55:44;;;;;;;6.85;1.20;;;;;;;;;;6237517;23;20031;-83
2022/09/15 16:58:25;;;;;;;7.60;1.10;;;;;;;;;;6171832;23;20043;-83
2022/09/15 17:01:38;;;;;;;4.50;1.05;;;;;;;;;;6233098;22;20020;-82
2022/09/15 17:04:37;;;;;;;5.05;1.50;;;;;;;;;;6261273;22;20023;-82
2022/09/15 17:07:19;;;;;;;3.10;0.80;;;;;;;;;;6210910;22;20030;-84
2022/09/15 17:10:07;;;;;;;3.65;0.90;;;;;;;;;;6258944;22;20023;-84
2022/09/15 17:12:43;;;;;;;4.28;0.98;;;;;;;;;;6284057;22;20023;-84
2022/09/15 17:15:34;;;;;;;3.80;0.98;;;;;;;;;;6260652;22;20019;-84
2022/09/15 17:18:02;;;;;;;5.60;1.00;;;;;;;;;;6250597;22;20458;-84
2022/09/15 17:20:32;;;;;;;7.22;1.30;;;;;;;;;;6284625;22;20039;-84
2022/09/15 17:23:19;;;;;;;5.15;1.30;;;;;;;;;;6282259;22;20046;-84
2022/09/15 17:25:57;;;;;;;1.95;0.60;;;;;;;;;;6285173;22;20030;-84
2022/09/15 17:28:28;;;;;;;9.82;1.38;;;;;;;;;;6284317;22;20095;-84
2022/09/15 17:31:26;;;;;;;3.05;1.00;;;;;;;;;;6226252;22;20028;-84
2022/09/15 17:33:55;;;;;;;6.32;1.65;;;;;;;;;;6283998;22;20016;-84
2022/09/15 17:36:23;;;;;;;4.18;1.00;;;;;;;;;;6285090;22;20047;-84
2022/09/15 17:38:51;;;;;;;2.95;0.93;;;;;;;;;;6247992;22;20024;-84
2022/09/15 17:41:21;;;;;;;7.30;1.10;;;;;;;;;;6284607;22;20324;-84
2022/09/15 17:43:49;;;;;;;6.72;1.42;;;;;;;;;;6234629;22;20042;-85
2022/09/15 17:47:20;;;;;;;3.72;1.05;;;;;;;;;;6256398;22;20047;-83
2022/09/15 17:51:57;;;;;;;5.72;1.25;;;;;;;;;;6177401;23;20043;-83
2022/09/15 17:56:18;;;;;;;5.10;1.52;;;;;;;;;;6179970;23;20024;-83
2022/09/15 17:59:12;;;;;;;6.07;1.38;;;;;;;;;;6117256;23;20036;-84
2022/09/15 18:02:19;;;;;;;6.40;1.35;;;;;;;;;;6092648;23;20044;-83
2022/09/15 18:05:34;;;;;;;6.60;1.60;;;;;;;;;;6117882;23;20046;-83
2022/09/15 18:08:35;;;;;;;9.10;1.63;;;;;;;;;;6119350;23;20025;-85
2022/09/15 18:11:17;;;;;;;4.80;1.40;;;;;;;;;;6070617;23;20033;-85
2022/09/15 18:14:23;;;;;;;5.13;1.17;;;;;;;;;;6127598;23;20038;-83
2022/09/15 18:18:02;;;;;;;4.70;1.50;;;;;;;;;;6094415;23;20101;-85
2022/09/15 18:22:07;;;;;;;5.68;1.80;;;;;;;;;;6143867;23;20032;-85
2022/09/15 18:25:27;;;;;;;7.40;2.75;;;;;;;;;;6148386;23;20127;-85
2022/09/15 18:31:46;;;;;;;7.40;1.70;;;;;;;;;;6206217;23;20024;-83
2022/09/15 18:34:33;;;;;;;4.22;1.42;;;;;;;;;;6198680;22;20016;-85